sensor_id;sensor_type;location;lat;lon;timestamp;P1;durP1;ratioP1;P2;durP2;ratioP2
62693;SDS011;48759;52.544;13.418;2023-04-06T00:00:48;7.30;;;6.43;;
62693;SDS011;48759;52.544;13.418;2023-04-06T00:03:15;11.13;;;7.77;;
62693;SDS011;48759;52.544;13.418;2023-04-06T00:05:47;8.63;;;6.70;;
62693;SDS011;48759;52.544;13.418;2023-04-06T00:08:16;8.37;;;6.37;;
62693;SDS011;48759;52.544;13.418;2023-04-06T00:10:43;7.37;;;5.73;;
62693;SDS011;48759;52.544;13.418;2023-04-06T00:13:09;12.47;;;7.30;;
62693;SDS011;48759;52.544;13.418;2023-04-06T00:15:41;11.80;;;6.80;;
62693;SDS011;48759;52.544;13.418;2023-04-06T00:18:07;9.20;;;6.40;;
62693;SDS011;48759;52.544;13.418;2023-04-06T00:20:36;6.80;;;5.90;;
62693;SDS011;48759;52.544;13.418;2023-04-06T00:23:04;9.43;;;5.83;;
62693;SDS011;48759;52.544;13.418;2023-04-06T00:25:31;6.80;;;5.90;;
62693;SDS011;48759;52.544;13.418;2023-04-06T00:28:01;8.03;;;5.77;;
62693;SDS011;48759;52.544;13.418;2023-04-06T00:30:28;12.10;;;6.37;;
62693;SDS011;48759;52.544;13.418;2023-04-06T00:32:55;10.23;;;6.37;;
62693;SDS011;48759;52.544;13.418;2023-04-06T00:35:25;10.63;;;6.30;;
62693;SDS011;48759;52.544;13.418;2023-04-06T00:37:59;11.10;;;7.13;;
62693;SDS011;48759;52.544;13.418;2023-04-06T00:40:27;6.83;;;5.57;;
62693;SDS011;48759;52.544;13.418;2023-04-06T00:42:53;9.40;;;6.10;;
62693;SDS011;48759;52.544;13.418;2023-04-06T00:45:20;11.10;;;6.30;;
62693;SDS011;48759;52.544;13.418;2023-04-06T00:47:48;10.60;;;6.07;;
62693;SDS011;48759;52.544;13.418;2023-04-06T00:50:15;7.30;;;5.40;;
62693;SDS011;48759;52.544;13.418;2023-04-06T00:52:41;11.17;;;5.23;;
62693;SDS011;48759;52.544;13.418;2023-04-06T00:55:11;7.33;;;5.60;;
62693;SDS011;48759;52.544;13.418;2023-04-06T00:57:39;9.10;;;5.97;;
62693;SDS011;48759;52.544;13.418;2023-04-06T01:00:06;5.97;;;5.13;;
62693;SDS011;48759;52.544;13.418;2023-04-06T01:02:34;5.37;;;4.63;;
62693;SDS011;48759;52.544;13.418;2023-04-06T01:05:01;4.80;;;4.30;;
62693;SDS011;48759;52.544;13.418;2023-04-06T01:07:28;8.33;;;4.57;;
62693;SDS011;48759;52.544;13.418;2023-04-06T01:09:55;6.67;;;4.67;;
62693;SDS011;48759;52.544;13.418;2023-04-06T01:12:22;6.57;;;4.37;;
62693;SDS011;48759;52.544;13.418;2023-04-06T01:14:51;4.20;;;3.80;;
62693;SDS011;48759;52.544;13.418;2023-04-06T01:17:18;6.97;;;4.73;;
62693;SDS011;48759;52.544;13.418;2023-04-06T01:19:45;4.53;;;3.90;;
62693;SDS011;48759;52.544;13.418;2023-04-06T01:22:27;10.13;;;3.60;;
62693;SDS011;48759;52.544;13.418;2023-04-06T01:24:55;5.67;;;4.33;;
62693;SDS011;48759;52.544;13.418;2023-04-06T01:27:24;5.33;;;3.60;;
62693;SDS011;48759;52.544;13.418;2023-04-06T01:29:52;4.87;;;4.37;;
62693;SDS011;48759;52.544;13.418;2023-04-06T01:32:23;5.80;;;4.33;;
62693;SDS011;48759;52.544;13.418;2023-04-06T01:34:51;4.60;;;3.40;;
62693;SDS011;48759;52.544;13.418;2023-04-06T01:37:21;10.63;;;4.10;;
62693;SDS011;48759;52.544;13.418;2023-04-06T01:39:48;4.87;;;3.70;;
62693;SDS011;48759;52.544;13.418;2023-04-06T01:42:15;4.73;;;4.20;;
62693;SDS011;48759;52.544;13.418;2023-04-06T01:44:43;7.00;;;4.30;;
62693;SDS011;48759;52.544;13.418;2023-04-06T01:47:10;9.87;;;4.80;;
62693;SDS011;48759;52.544;13.418;2023-04-06T01:49:37;5.23;;;4.30;;
62693;SDS011;48759;52.544;13.418;2023-04-06T01:52:04;6.30;;;3.77;;
62693;SDS011;48759;52.544;13.418;2023-04-06T01:54:33;7.10;;;4.43;;
62693;SDS011;48759;52.544;13.418;2023-04-06T01:56:59;9.57;;;4.40;;
62693;SDS011;48759;52.544;13.418;2023-04-06T01:59:26;5.60;;;3.60;;
62693;SDS011;48759;52.544;13.418;2023-04-06T02:01:53;5.60;;;4.37;;
62693;SDS011;48759;52.544;13.418;2023-04-06T02:04:21;6.23;;;4.20;;
62693;SDS011;48759;52.544;13.418;2023-04-06T02:06:48;6.63;;;4.20;;
62693;SDS011;48759;52.544;13.418;2023-04-06T02:09:15;4.67;;;4.27;;
62693;SDS011;48759;52.544;13.418;2023-04-06T02:11:47;6.50;;;4.57;;
62693;SDS011;48759;52.544;13.418;2023-04-06T02:14:14;4.27;;;3.83;;
62693;SDS011;48759;52.544;13.418;2023-04-06T02:16:43;5.03;;;4.30;;
62693;SDS011;48759;52.544;13.418;2023-04-06T02:19:10;6.60;;;4.60;;
62693;SDS011;48759;52.544;13.418;2023-04-06T02:21:37;5.03;;;4.00;;
62693;SDS011;48759;52.544;13.418;2023-04-06T02:24:03;5.23;;;4.50;;
62693;SDS011;48759;52.544;13.418;2023-04-06T02:26:30;5.63;;;3.73;;
62693;SDS011;48759;52.544;13.418;2023-04-06T02:28:59;7.33;;;5.00;;
62693;SDS011;48759;52.544;13.418;2023-04-06T02:31:28;6.97;;;5.00;;
62693;SDS011;48759;52.544;13.418;2023-04-06T02:33:57;5.00;;;4.50;;
62693;SDS011;48759;52.544;13.418;2023-04-06T02:36:24;6.23;;;4.10;;
62693;SDS011;48759;52.544;13.418;2023-04-06T02:38:54;7.40;;;4.90;;
62693;SDS011;48759;52.544;13.418;2023-04-06T02:41:20;6.77;;;5.10;;
62693;SDS011;48759;52.544;13.418;2023-04-06T02:43:51;8.13;;;5.03;;
62693;SDS011;48759;52.544;13.418;2023-04-06T02:46:20;5.70;;;4.70;;
62693;SDS011;48759;52.544;13.418;2023-04-06T02:48:47;9.20;;;4.97;;
62693;SDS011;48759;52.544;13.418;2023-04-06T02:51:14;8.00;;;5.10;;
62693;SDS011;48759;52.544;13.418;2023-04-06T02:53:48;6.13;;;5.10;;
62693;SDS011;48759;52.544;13.418;2023-04-06T02:56:15;7.87;;;5.37;;
62693;SDS011;48759;52.544;13.418;2023-04-06T02:58:42;7.20;;;4.63;;
62693;SDS011;48759;52.544;13.418;2023-04-06T03:01:09;7.80;;;5.17;;
62693;SDS011;48759;52.544;13.418;2023-04-06T03:03:37;6.20;;;5.60;;
62693;SDS011;48759;52.544;13.418;2023-04-06T03:06:05;8.63;;;5.00;;
62693;SDS011;48759;52.544;13.418;2023-04-06T03:08:32;6.07;;;5.30;;
62693;SDS011;48759;52.544;13.418;2023-04-06T03:10:59;10.40;;;4.50;;
62693;SDS011;48759;52.544;13.418;2023-04-06T03:13:26;7.03;;;4.80;;
62693;SDS011;48759;52.544;13.418;2023-04-06T03:15:53;5.20;;;4.70;;
62693;SDS011;48759;52.544;13.418;2023-04-06T03:18:21;7.57;;;5.30;;
62693;SDS011;48759;52.544;13.418;2023-04-06T03:20:50;6.53;;;4.90;;
62693;SDS011;48759;52.544;13.418;2023-04-06T03:23:21;10.30;;;5.90;;
62693;SDS011;48759;52.544;13.418;2023-04-06T03:25:48;8.13;;;5.70;;
62693;SDS011;48759;52.544;13.418;2023-04-06T03:28:18;7.70;;;6.10;;
62693;SDS011;48759;52.544;13.418;2023-04-06T03:30:44;12.60;;;7.80;;
62693;SDS011;48759;52.544;13.418;2023-04-06T03:33:11;11.10;;;7.20;;
62693;SDS011;48759;52.544;13.418;2023-04-06T03:35:38;7.87;;;7.07;;
62693;SDS011;48759;52.544;13.418;2023-04-06T03:38:06;10.47;;;6.27;;
62693;SDS011;48759;52.544;13.418;2023-04-06T03:40:37;9.80;;;7.90;;
62693;SDS011;48759;52.544;13.418;2023-04-06T03:43:05;12.93;;;7.43;;
62693;SDS011;48759;52.544;13.418;2023-04-06T03:45:32;10.10;;;7.70;;
62693;SDS011;48759;52.544;13.418;2023-04-06T03:47:59;8.93;;;7.30;;
62693;SDS011;48759;52.544;13.418;2023-04-06T03:50:27;10.17;;;7.60;;
62693;SDS011;48759;52.544;13.418;2023-04-06T03:52:54;14.23;;;9.87;;
62693;SDS011;48759;52.544;13.418;2023-04-06T03:55:29;11.40;;;8.03;;
62693;SDS011;48759;52.544;13.418;2023-04-06T03:57:57;16.23;;;8.77;;
62693;SDS011;48759;52.544;13.418;2023-04-06T04:00:23;11.00;;;8.23;;
62693;SDS011;48759;52.544;13.418;2023-04-06T04:02:51;11.83;;;6.60;;
62693;SDS011;48759;52.544;13.418;2023-04-06T04:05:17;26.50;;;9.83;;
62693;SDS011;48759;52.544;13.418;2023-04-06T04:07:45;12.80;;;8.83;;
62693;SDS011;48759;52.544;13.418;2023-04-06T04:10:12;11.33;;;8.43;;
62693;SDS011;48759;52.544;13.418;2023-04-06T04:12:41;14.33;;;8.03;;
62693;SDS011;48759;52.544;13.418;2023-04-06T04:15:08;12.40;;;7.97;;
62693;SDS011;48759;52.544;13.418;2023-04-06T04:17:35;11.77;;;7.10;;
62693;SDS011;48759;52.544;13.418;2023-04-06T04:20:03;12.30;;;7.00;;
62693;SDS011;48759;52.544;13.418;2023-04-06T04:22:30;11.20;;;7.47;;
62693;SDS011;48759;52.544;13.418;2023-04-06T04:24:58;10.13;;;8.07;;
62693;SDS011;48759;52.544;13.418;2023-04-06T04:27:27;10.87;;;7.40;;
62693;SDS011;48759;52.544;13.418;2023-04-06T04:29:55;10.70;;;7.40;;
62693;SDS011;48759;52.544;13.418;2023-04-06T04:32:22;9.93;;;7.20;;
62693;SDS011;48759;52.544;13.418;2023-04-06T04:34:52;9.90;;;6.40;;
62693;SDS011;48759;52.544;13.418;2023-04-06T04:37:22;11.40;;;7.60;;
62693;SDS011;48759;52.544;13.418;2023-04-06T04:39:52;10.30;;;7.93;;
62693;SDS011;48759;52.544;13.418;2023-04-06T04:42:19;12.30;;;7.67;;
62693;SDS011;48759;52.544;13.418;2023-04-06T04:44:47;10.53;;;7.07;;
62693;SDS011;48759;52.544;13.418;2023-04-06T04:47:23;13.40;;;7.43;;
62693;SDS011;48759;52.544;13.418;2023-04-06T04:49:51;8.07;;;6.50;;
62693;SDS011;48759;52.544;13.418;2023-04-06T04:52:20;9.80;;;7.50;;
62693;SDS011;48759;52.544;13.418;2023-04-06T04:54:48;10.10;;;7.97;;
62693;SDS011;48759;52.544;13.418;2023-04-06T04:57:19;11.60;;;8.70;;
62693;SDS011;48759;52.544;13.418;2023-04-06T04:59:47;15.47;;;7.70;;
62693;SDS011;48759;52.544;13.418;2023-04-06T05:02:15;15.33;;;7.20;;
62693;SDS011;48759;52.544;13.418;2023-04-06T05:04:46;11.23;;;7.67;;
62693;SDS011;48759;52.544;13.418;2023-04-06T05:07:19;9.87;;;6.90;;
62693;SDS011;48759;52.544;13.418;2023-04-06T05:09:56;9.80;;;7.10;;
62693;SDS011;48759;52.544;13.418;2023-04-06T05:12:26;6.87;;;6.20;;
62693;SDS011;48759;52.544;13.418;2023-04-06T05:15:00;7.70;;;6.80;;
62693;SDS011;48759;52.544;13.418;2023-04-06T05:17:29;10.30;;;6.93;;
62693;SDS011;48759;52.544;13.418;2023-04-06T05:19:59;9.90;;;8.00;;
62693;SDS011;48759;52.544;13.418;2023-04-06T05:22:26;10.60;;;7.20;;
62693;SDS011;48759;52.544;13.418;2023-04-06T05:24:54;10.20;;;7.77;;
62693;SDS011;48759;52.544;13.418;2023-04-06T05:27:47;10.80;;;7.63;;
62693;SDS011;48759;52.544;13.418;2023-04-06T05:30:22;10.03;;;6.57;;
62693;SDS011;48759;52.544;13.418;2023-04-06T05:33:05;10.17;;;7.00;;
62693;SDS011;48759;52.544;13.418;2023-04-06T05:41:27;7.97;;;7.10;;
62693;SDS011;48759;52.544;13.418;2023-04-06T05:44:06;7.67;;;6.60;;
62693;SDS011;48759;52.544;13.418;2023-04-06T05:52:51;8.00;;;6.67;;
62693;SDS011;48759;52.544;13.418;2023-04-06T05:55:38;13.73;;;7.57;;
62693;SDS011;48759;52.544;13.418;2023-04-06T06:03:48;9.13;;;7.47;;
62693;SDS011;48759;52.544;13.418;2023-04-06T06:06:21;8.67;;;6.77;;
62693;SDS011;48759;52.544;13.418;2023-04-06T06:08:48;12.83;;;7.50;;
62693;SDS011;48759;52.544;13.418;2023-04-06T06:11:29;13.20;;;7.63;;
62693;SDS011;48759;52.544;13.418;2023-04-06T06:14:01;14.93;;;6.43;;
62693;SDS011;48759;52.544;13.418;2023-04-06T06:16:44;11.10;;;7.10;;
62693;SDS011;48759;52.544;13.418;2023-04-06T06:22:46;7.50;;;6.70;;
62693;SDS011;48759;52.544;13.418;2023-04-06T06:25:21;8.43;;;7.27;;
62693;SDS011;48759;52.544;13.418;2023-04-06T06:28:01;10.33;;;8.10;;
62693;SDS011;48759;52.544;13.418;2023-04-06T06:30:30;9.07;;;7.40;;
62693;SDS011;48759;52.544;13.418;2023-04-06T06:32:59;9.70;;;6.73;;
62693;SDS011;48759;52.544;13.418;2023-04-06T06:35:28;11.63;;;6.80;;
62693;SDS011;48759;52.544;13.418;2023-04-06T06:41:07;9.80;;;6.50;;
62693;SDS011;48759;52.544;13.418;2023-04-06T06:43:48;9.43;;;6.90;;
62693;SDS011;48759;52.544;13.418;2023-04-06T06:46:19;14.50;;;6.70;;
62693;SDS011;48759;52.544;13.418;2023-04-06T06:48:49;14.37;;;7.20;;
62693;SDS011;48759;52.544;13.418;2023-04-06T06:51:32;7.47;;;6.70;;
62693;SDS011;48759;52.544;13.418;2023-04-06T06:53:59;7.10;;;5.70;;
62693;SDS011;48759;52.544;13.418;2023-04-06T06:56:37;9.67;;;6.43;;
62693;SDS011;48759;52.544;13.418;2023-04-06T06:59:17;9.23;;;6.43;;
62693;SDS011;48759;52.544;13.418;2023-04-06T07:01:56;7.80;;;5.97;;
62693;SDS011;48759;52.544;13.418;2023-04-06T07:04:31;10.03;;;6.30;;
62693;SDS011;48759;52.544;13.418;2023-04-06T07:06:59;10.03;;;6.77;;
62693;SDS011;48759;52.544;13.418;2023-04-06T07:09:31;9.50;;;7.13;;
62693;SDS011;48759;52.544;13.418;2023-04-06T07:12:16;12.60;;;6.80;;
62693;SDS011;48759;52.544;13.418;2023-04-06T07:14:53;7.93;;;6.50;;
62693;SDS011;48759;52.544;13.418;2023-04-06T07:17:45;16.50;;;6.67;;
62693;SDS011;48759;52.544;13.418;2023-04-06T07:23:28;7.83;;;5.87;;
62693;SDS011;48759;52.544;13.418;2023-04-06T07:26:11;7.63;;;5.70;;
62693;SDS011;48759;52.544;13.418;2023-04-06T07:37:34;8.23;;;6.40;;
62693;SDS011;48759;52.544;13.418;2023-04-06T07:40:03;9.80;;;6.13;;
62693;SDS011;48759;52.544;13.418;2023-04-06T07:42:30;10.50;;;6.27;;
62693;SDS011;48759;52.544;13.418;2023-04-06T07:45:06;7.90;;;5.77;;
62693;SDS011;48759;52.544;13.418;2023-04-06T07:47:36;7.40;;;5.80;;
62693;SDS011;48759;52.544;13.418;2023-04-06T07:50:08;10.63;;;6.00;;
62693;SDS011;48759;52.544;13.418;2023-04-06T08:07:54;15.53;;;5.07;;
62693;SDS011;48759;52.544;13.418;2023-04-06T08:10:26;7.23;;;4.60;;
62693;SDS011;48759;52.544;13.418;2023-04-06T08:13:00;8.07;;;5.87;;
62693;SDS011;48759;52.544;13.418;2023-04-06T08:15:33;7.07;;;4.40;;
62693;SDS011;48759;52.544;13.418;2023-04-06T08:18:17;11.30;;;4.53;;
62693;SDS011;48759;52.544;13.418;2023-04-06T08:20:52;8.87;;;4.53;;
62693;SDS011;48759;52.544;13.418;2023-04-06T08:23:47;5.73;;;4.63;;
62693;SDS011;48759;52.544;13.418;2023-04-06T08:26:30;8.80;;;5.70;;
62693;SDS011;48759;52.544;13.418;2023-04-06T08:28:57;8.70;;;5.40;;
62693;SDS011;48759;52.544;13.418;2023-04-06T08:31:24;10.67;;;5.37;;
62693;SDS011;48759;52.544;13.418;2023-04-06T08:33:53;7.67;;;4.87;;
62693;SDS011;48759;52.544;13.418;2023-04-06T08:36:21;25.57;;;5.13;;
62693;SDS011;48759;52.544;13.418;2023-04-06T08:39:07;6.93;;;4.03;;
62693;SDS011;48759;52.544;13.418;2023-04-06T08:41:41;8.23;;;4.20;;
62693;SDS011;48759;52.544;13.418;2023-04-06T08:44:11;7.07;;;4.00;;
62693;SDS011;48759;52.544;13.418;2023-04-06T08:46:43;4.80;;;3.80;;
62693;SDS011;48759;52.544;13.418;2023-04-06T08:49:11;6.57;;;4.30;;
62693;SDS011;48759;52.544;13.418;2023-04-06T08:51:41;7.90;;;5.00;;
62693;SDS011;48759;52.544;13.418;2023-04-06T08:54:13;4.17;;;3.77;;
62693;SDS011;48759;52.544;13.418;2023-04-06T08:56:41;8.30;;;4.10;;
62693;SDS011;48759;52.544;13.418;2023-04-06T08:59:10;5.67;;;4.40;;
62693;SDS011;48759;52.544;13.418;2023-04-06T09:01:44;6.53;;;3.93;;
62693;SDS011;48759;52.544;13.418;2023-04-06T09:04:16;6.87;;;4.63;;
62693;SDS011;48759;52.544;13.418;2023-04-06T09:06:45;3.77;;;3.20;;
62693;SDS011;48759;52.544;13.418;2023-04-06T09:09:19;4.30;;;3.50;;
62693;SDS011;48759;52.544;13.418;2023-04-06T09:11:58;4.27;;;3.60;;
62693;SDS011;48759;52.544;13.418;2023-04-06T09:14:35;3.43;;;3.13;;
62693;SDS011;48759;52.544;13.418;2023-04-06T09:17:03;8.60;;;3.53;;
62693;SDS011;48759;52.544;13.418;2023-04-06T09:19:32;4.97;;;3.53;;
62693;SDS011;48759;52.544;13.418;2023-04-06T09:22:10;6.83;;;3.20;;
62693;SDS011;48759;52.544;13.418;2023-04-06T09:24:46;5.73;;;4.10;;
62693;SDS011;48759;52.544;13.418;2023-04-06T09:27:30;4.10;;;3.40;;
62693;SDS011;48759;52.544;13.418;2023-04-06T09:33:03;5.27;;;3.37;;
62693;SDS011;48759;52.544;13.418;2023-04-06T09:35:36;6.50;;;3.20;;
62693;SDS011;48759;52.544;13.418;2023-04-06T09:38:10;4.00;;;3.33;;
62693;SDS011;48759;52.544;13.418;2023-04-06T09:41:01;3.23;;;2.93;;
62693;SDS011;48759;52.544;13.418;2023-04-06T09:43:45;5.87;;;3.57;;
62693;SDS011;48759;52.544;13.418;2023-04-06T09:46:21;4.07;;;3.53;;
62693;SDS011;48759;52.544;13.418;2023-04-06T09:48:52;5.00;;;3.43;;
62693;SDS011;48759;52.544;13.418;2023-04-06T09:51:34;3.30;;;3.00;;
62693;SDS011;48759;52.544;13.418;2023-04-06T09:54:03;4.07;;;2.83;;
62693;SDS011;48759;52.544;13.418;2023-04-06T09:59:21;4.90;;;3.40;;
62693;SDS011;48759;52.544;13.418;2023-04-06T10:02:32;3.47;;;2.80;;
62693;SDS011;48759;52.544;13.418;2023-04-06T10:05:08;3.50;;;3.20;;
62693;SDS011;48759;52.544;13.418;2023-04-06T10:07:36;4.70;;;3.07;;
62693;SDS011;48759;52.544;13.418;2023-04-06T10:10:06;2.70;;;2.40;;
62693;SDS011;48759;52.544;13.418;2023-04-06T10:12:33;3.17;;;2.80;;
62693;SDS011;48759;52.544;13.418;2023-04-06T10:15:36;2.40;;;2.07;;
62693;SDS011;48759;52.544;13.418;2023-04-06T10:18:18;4.30;;;2.53;;
62693;SDS011;48759;52.544;13.418;2023-04-06T10:20:47;3.37;;;2.30;;
62693;SDS011;48759;52.544;13.418;2023-04-06T10:23:22;2.83;;;2.63;;
62693;SDS011;48759;52.544;13.418;2023-04-06T10:25:58;7.87;;;3.30;;
62693;SDS011;48759;52.544;13.418;2023-04-06T10:28:30;7.33;;;2.70;;
62693;SDS011;48759;52.544;13.418;2023-04-06T10:31:04;3.13;;;2.30;;
62693;SDS011;48759;52.544;13.418;2023-04-06T10:33:34;3.73;;;2.20;;
62693;SDS011;48759;52.544;13.418;2023-04-06T10:36:10;2.53;;;2.33;;
62693;SDS011;48759;52.544;13.418;2023-04-06T10:38:55;3.00;;;2.70;;
62693;SDS011;48759;52.544;13.418;2023-04-06T10:47:15;5.60;;;3.00;;
62693;SDS011;48759;52.544;13.418;2023-04-06T10:49:57;3.73;;;3.33;;
62693;SDS011;48759;52.544;13.418;2023-04-06T10:52:28;2.90;;;2.63;;
62693;SDS011;48759;52.544;13.418;2023-04-06T10:55:21;6.77;;;3.30;;
62693;SDS011;48759;52.544;13.418;2023-04-06T10:58:00;3.73;;;3.00;;
62693;SDS011;48759;52.544;13.418;2023-04-06T11:00:27;2.70;;;2.40;;
62693;SDS011;48759;52.544;13.418;2023-04-06T11:03:00;6.03;;;3.10;;
62693;SDS011;48759;52.544;13.418;2023-04-06T11:05:28;3.20;;;2.60;;
62693;SDS011;48759;52.544;13.418;2023-04-06T11:07:57;5.00;;;3.63;;
62693;SDS011;48759;52.544;13.418;2023-04-06T11:10:27;5.57;;;3.10;;
62693;SDS011;48759;52.544;13.418;2023-04-06T11:13:07;3.27;;;2.97;;
62693;SDS011;48759;52.544;13.418;2023-04-06T11:15:34;3.10;;;2.80;;
62693;SDS011;48759;52.544;13.418;2023-04-06T11:20:50;3.07;;;2.77;;
62693;SDS011;48759;52.544;13.418;2023-04-06T11:23:22;2.77;;;2.47;;
62693;SDS011;48759;52.544;13.418;2023-04-06T11:25:51;6.37;;;3.07;;
62693;SDS011;48759;52.544;13.418;2023-04-06T11:28:21;8.83;;;3.10;;
62693;SDS011;48759;52.544;13.418;2023-04-06T11:30:49;3.57;;;2.60;;
62693;SDS011;48759;52.544;13.418;2023-04-06T11:33:21;4.93;;;2.60;;
62693;SDS011;48759;52.544;13.418;2023-04-06T11:35:56;4.43;;;2.93;;
62693;SDS011;48759;52.544;13.418;2023-04-06T11:38:38;3.80;;;3.00;;
62693;SDS011;48759;52.544;13.418;2023-04-06T11:41:13;4.03;;;3.20;;
62693;SDS011;48759;52.544;13.418;2023-04-06T11:43:46;3.20;;;2.90;;
62693;SDS011;48759;52.544;13.418;2023-04-06T11:46:21;3.00;;;2.70;;
62693;SDS011;48759;52.544;13.418;2023-04-06T11:48:52;3.80;;;3.23;;
62693;SDS011;48759;52.544;13.418;2023-04-06T11:51:38;2.47;;;2.27;;
62693;SDS011;48759;52.544;13.418;2023-04-06T11:54:29;3.40;;;2.80;;
62693;SDS011;48759;52.544;13.418;2023-04-06T11:57:20;3.10;;;2.80;;
62693;SDS011;48759;52.544;13.418;2023-04-06T11:59:51;4.00;;;2.90;;
62693;SDS011;48759;52.544;13.418;2023-04-06T12:02:29;4.37;;;2.63;;
62693;SDS011;48759;52.544;13.418;2023-04-06T12:05:03;4.67;;;3.10;;
62693;SDS011;48759;52.544;13.418;2023-04-06T12:10:18;7.53;;;2.97;;
62693;SDS011;48759;52.544;13.418;2023-04-06T12:12:51;4.20;;;2.40;;
62693;SDS011;48759;52.544;13.418;2023-04-06T12:15:21;3.20;;;2.90;;
62693;SDS011;48759;52.544;13.418;2023-04-06T12:17:49;4.50;;;3.87;;
62693;SDS011;48759;52.544;13.418;2023-04-06T12:20:18;5.60;;;3.03;;
62693;SDS011;48759;52.544;13.418;2023-04-06T12:22:57;9.27;;;4.10;;
62693;SDS011;48759;52.544;13.418;2023-04-06T12:25:28;6.60;;;3.70;;
62693;SDS011;48759;52.544;13.418;2023-04-06T12:28:13;4.60;;;3.10;;
62693;SDS011;48759;52.544;13.418;2023-04-06T12:30:44;3.57;;;3.00;;
62693;SDS011;48759;52.544;13.418;2023-04-06T12:33:13;3.33;;;2.67;;
62693;SDS011;48759;52.544;13.418;2023-04-06T12:35:55;6.40;;;2.90;;
62693;SDS011;48759;52.544;13.418;2023-04-06T12:38:22;6.27;;;2.97;;
62693;SDS011;48759;52.544;13.418;2023-04-06T12:40:51;4.43;;;2.80;;
62693;SDS011;48759;52.544;13.418;2023-04-06T12:43:34;5.03;;;3.60;;
62693;SDS011;48759;52.544;13.418;2023-04-06T12:46:16;5.30;;;3.53;;
62693;SDS011;48759;52.544;13.418;2023-04-06T12:49:09;4.77;;;2.77;;
62693;SDS011;48759;52.544;13.418;2023-04-06T12:51:42;3.30;;;2.70;;
62693;SDS011;48759;52.544;13.418;2023-04-06T12:54:24;3.07;;;2.80;;
62693;SDS011;48759;52.544;13.418;2023-04-06T12:56:58;5.10;;;3.20;;
62693;SDS011;48759;52.544;13.418;2023-04-06T12:59:47;3.27;;;2.97;;
62693;SDS011;48759;52.544;13.418;2023-04-06T13:02:16;4.33;;;3.00;;
62693;SDS011;48759;52.544;13.418;2023-04-06T13:04:47;2.93;;;2.63;;
62693;SDS011;48759;52.544;13.418;2023-04-06T13:07:17;3.20;;;2.90;;
62693;SDS011;48759;52.544;13.418;2023-04-06T13:09:48;3.20;;;2.70;;
62693;SDS011;48759;52.544;13.418;2023-04-06T13:12:18;3.27;;;2.60;;
62693;SDS011;48759;52.544;13.418;2023-04-06T13:15:00;5.43;;;3.00;;
62693;SDS011;48759;52.544;13.418;2023-04-06T13:17:30;5.03;;;3.00;;
62693;SDS011;48759;52.544;13.418;2023-04-06T13:20:04;3.43;;;3.03;;
62693;SDS011;48759;52.544;13.418;2023-04-06T13:22:43;5.03;;;2.80;;
62693;SDS011;48759;52.544;13.418;2023-04-06T13:25:25;3.67;;;2.70;;
62693;SDS011;48759;52.544;13.418;2023-04-06T13:28:08;3.87;;;3.20;;
62693;SDS011;48759;52.544;13.418;2023-04-06T13:30:48;4.93;;;2.53;;
62693;SDS011;48759;52.544;13.418;2023-04-06T13:33:21;3.50;;;2.93;;
62693;SDS011;48759;52.544;13.418;2023-04-06T13:36:03;3.03;;;2.60;;
62693;SDS011;48759;52.544;13.418;2023-04-06T13:41:49;5.30;;;3.57;;
62693;SDS011;48759;52.544;13.418;2023-04-06T13:44:26;3.23;;;2.90;;
62693;SDS011;48759;52.544;13.418;2023-04-06T13:47:07;3.93;;;3.00;;
62693;SDS011;48759;52.544;13.418;2023-04-06T13:50:00;6.57;;;3.40;;
62693;SDS011;48759;52.544;13.418;2023-04-06T13:52:28;4.20;;;2.70;;
62693;SDS011;48759;52.544;13.418;2023-04-06T13:55:20;3.63;;;2.80;;
62693;SDS011;48759;52.544;13.418;2023-04-06T13:57:51;3.73;;;3.20;;
62693;SDS011;48759;52.544;13.418;2023-04-06T14:00:26;3.30;;;3.00;;
62693;SDS011;48759;52.544;13.418;2023-04-06T14:03:01;6.07;;;3.70;;
62693;SDS011;48759;52.544;13.418;2023-04-06T14:05:42;5.80;;;3.50;;
62693;SDS011;48759;52.544;13.418;2023-04-06T14:08:23;10.50;;;3.20;;
62693;SDS011;48759;52.544;13.418;2023-04-06T14:10:58;5.37;;;3.00;;
62693;SDS011;48759;52.544;13.418;2023-04-06T14:13:34;6.30;;;3.70;;
62693;SDS011;48759;52.544;13.418;2023-04-06T14:16:23;3.40;;;3.10;;
62693;SDS011;48759;52.544;13.418;2023-04-06T14:19:10;4.40;;;3.40;;
62693;SDS011;48759;52.544;13.418;2023-04-06T14:21:39;3.73;;;3.23;;
62693;SDS011;48759;52.544;13.418;2023-04-06T14:24:20;3.47;;;3.17;;
62693;SDS011;48759;52.544;13.418;2023-04-06T14:26:59;4.80;;;3.20;;
62693;SDS011;48759;52.544;13.418;2023-04-06T14:29:30;3.13;;;2.90;;
62693;SDS011;48759;52.544;13.418;2023-04-06T14:32:03;4.30;;;3.17;;
62693;SDS011;48759;52.544;13.418;2023-04-06T14:34:38;4.20;;;3.20;;
62693;SDS011;48759;52.544;13.418;2023-04-06T14:37:06;9.37;;;3.17;;
62693;SDS011;48759;52.544;13.418;2023-04-06T14:39:45;4.20;;;3.00;;
62693;SDS011;48759;52.544;13.418;2023-04-06T14:42:25;5.43;;;3.70;;
62693;SDS011;48759;52.544;13.418;2023-04-06T14:44:52;5.70;;;3.07;;
62693;SDS011;48759;52.544;13.418;2023-04-06T14:47:27;4.00;;;3.37;;
62693;SDS011;48759;52.544;13.418;2023-04-06T14:49:55;9.33;;;3.73;;
62693;SDS011;48759;52.544;13.418;2023-04-06T14:52:22;7.80;;;4.10;;
62693;SDS011;48759;52.544;13.418;2023-04-06T14:54:49;3.90;;;3.43;;
62693;SDS011;48759;52.544;13.418;2023-04-06T14:57:18;4.47;;;4.07;;
62693;SDS011;48759;52.544;13.418;2023-04-06T14:59:44;3.60;;;3.23;;
62693;SDS011;48759;52.544;13.418;2023-04-06T15:02:13;4.20;;;3.33;;
62693;SDS011;48759;52.544;13.418;2023-04-06T15:04:49;4.93;;;3.33;;
62693;SDS011;48759;52.544;13.418;2023-04-06T15:07:17;4.50;;;3.57;;
62693;SDS011;48759;52.544;13.418;2023-04-06T15:10:08;4.10;;;3.63;;
62693;SDS011;48759;52.544;13.418;2023-04-06T15:15:41;4.20;;;3.27;;
62693;SDS011;48759;52.544;13.418;2023-04-06T15:18:09;3.93;;;2.97;;
62693;SDS011;48759;52.544;13.418;2023-04-06T15:20:41;3.07;;;2.83;;
62693;SDS011;48759;52.544;13.418;2023-04-06T15:23:19;5.37;;;3.63;;
62693;SDS011;48759;52.544;13.418;2023-04-06T15:25:47;4.37;;;3.07;;
62693;SDS011;48759;52.544;13.418;2023-04-06T15:28:13;4.30;;;3.63;;
62693;SDS011;48759;52.544;13.418;2023-04-06T15:30:45;7.00;;;3.30;;
62693;SDS011;48759;52.544;13.418;2023-04-06T15:33:27;4.60;;;3.27;;
62693;SDS011;48759;52.544;13.418;2023-04-06T15:36:08;4.00;;;3.07;;
62693;SDS011;48759;52.544;13.418;2023-04-06T15:38:53;4.10;;;2.80;;
62693;SDS011;48759;52.544;13.418;2023-04-06T15:41:32;3.37;;;3.07;;
62693;SDS011;48759;52.544;13.418;2023-04-06T15:43:59;3.47;;;3.10;;
62693;SDS011;48759;52.544;13.418;2023-04-06T15:46:27;3.80;;;3.23;;
62693;SDS011;48759;52.544;13.418;2023-04-06T15:48:55;3.50;;;3.10;;
62693;SDS011;48759;52.544;13.418;2023-04-06T15:51:28;4.00;;;3.10;;
62693;SDS011;48759;52.544;13.418;2023-04-06T15:53:56;3.57;;;3.17;;
62693;SDS011;48759;52.544;13.418;2023-04-06T15:56:24;7.83;;;2.90;;
62693;SDS011;48759;52.544;13.418;2023-04-06T15:58:51;3.10;;;2.70;;
62693;SDS011;48759;52.544;13.418;2023-04-06T16:01:22;4.33;;;3.20;;
62693;SDS011;48759;52.544;13.418;2023-04-06T16:03:50;3.40;;;3.10;;
62693;SDS011;48759;52.544;13.418;2023-04-06T16:06:18;3.83;;;2.83;;
62693;SDS011;48759;52.544;13.418;2023-04-06T16:08:50;3.50;;;3.20;;
62693;SDS011;48759;52.544;13.418;2023-04-06T16:11:19;4.63;;;2.90;;
62693;SDS011;48759;52.544;13.418;2023-04-06T16:13:47;2.90;;;2.60;;
62693;SDS011;48759;52.544;13.418;2023-04-06T16:16:17;4.57;;;3.13;;